sensor_id;sensor_type;location;lat;lon;timestamp;P1;durP1;ratioP1;P2;durP2;ratioP2
41687;SDS011;27371;42.686;23.362;2023-04-03T00:00:31;10.20;;;5.93;;
41687;SDS011;27371;42.686;23.362;2023-04-03T00:02:57;13.13;;;5.75;;
41687;SDS011;27371;42.686;23.362;2023-04-03T00:05:23;10.43;;;6.03;;
41687;SDS011;27371;42.686;23.362;2023-04-03T00:07:48;11.90;;;6.40;;
41687;SDS011;27371;42.686;23.362;2023-04-03T00:10:14;14.38;;;6.57;;
41687;SDS011;27371;42.686;23.362;2023-04-03T00:12:40;10.32;;;5.80;;
41687;SDS011;27371;42.686;23.362;2023-04-03T00:15:06;12.50;;;5.70;;
41687;SDS011;27371;42.686;23.362;2023-04-03T00:17:32;10.32;;;5.55;;
41687;SDS011;27371;42.686;23.362;2023-04-03T00:19:58;11.73;;;5.57;;
41687;SDS011;27371;42.686;23.362;2023-04-03T00:22:23;10.68;;;5.50;;
41687;SDS011;27371;42.686;23.362;2023-04-03T00:24:51;11.30;;;5.45;;
41687;SDS011;27371;42.686;23.362;2023-04-03T00:27:16;8.75;;;5.13;;
41687;SDS011;27371;42.686;23.362;2023-04-03T00:29:42;9.38;;;5.25;;
41687;SDS011;27371;42.686;23.362;2023-04-03T00:32:08;15.05;;;7.07;;
41687;SDS011;27371;42.686;23.362;2023-04-03T00:34:33;11.35;;;6.38;;
41687;SDS011;27371;42.686;23.362;2023-04-03T00:36:58;12.55;;;5.95;;
41687;SDS011;27371;42.686;23.362;2023-04-03T00:39:24;11.82;;;5.65;;
41687;SDS011;27371;42.686;23.362;2023-04-03T00:41:50;10.82;;;5.82;;
41687;SDS011;27371;42.686;23.362;2023-04-03T00:44:23;9.75;;;5.28;;
41687;SDS011;27371;42.686;23.362;2023-04-03T00:47:08;11.52;;;5.65;;
41687;SDS011;27371;42.686;23.362;2023-04-03T00:49:36;9.02;;;5.55;;
41687;SDS011;27371;42.686;23.362;2023-04-03T00:52:03;10.00;;;5.43;;
41687;SDS011;27371;42.686;23.362;2023-04-03T00:54:32;10.30;;;5.07;;
41687;SDS011;27371;42.686;23.362;2023-04-03T00:57:00;14.13;;;5.93;;
41687;SDS011;27371;42.686;23.362;2023-04-03T00:59:27;8.40;;;5.30;;
41687;SDS011;27371;42.686;23.362;2023-04-03T01:01:57;12.15;;;4.88;;
41687;SDS011;27371;42.686;23.362;2023-04-03T01:06:56;8.30;;;4.55;;
41687;SDS011;27371;42.686;23.362;2023-04-03T01:09:25;8.73;;;4.63;;
41687;SDS011;27371;42.686;23.362;2023-04-03T01:11:51;7.80;;;4.60;;
41687;SDS011;27371;42.686;23.362;2023-04-03T01:14:17;11.63;;;5.40;;
41687;SDS011;27371;42.686;23.362;2023-04-03T01:16:42;9.55;;;5.40;;
41687;SDS011;27371;42.686;23.362;2023-04-03T01:19:08;9.40;;;5.28;;
41687;SDS011;27371;42.686;23.362;2023-04-03T01:26:50;12.05;;;6.85;;
41687;SDS011;27371;42.686;23.362;2023-04-03T01:29:16;16.67;;;8.80;;
41687;SDS011;27371;42.686;23.362;2023-04-03T01:31:55;14.32;;;8.25;;
41687;SDS011;27371;42.686;23.362;2023-04-03T01:34:22;17.85;;;8.40;;
41687;SDS011;27371;42.686;23.362;2023-04-03T01:36:49;15.95;;;8.35;;
41687;SDS011;27371;42.686;23.362;2023-04-03T01:39:15;13.35;;;7.63;;
41687;SDS011;27371;42.686;23.362;2023-04-03T01:41:41;13.48;;;8.52;;
41687;SDS011;27371;42.686;23.362;2023-04-03T01:44:07;9.40;;;6.45;;
41687;SDS011;27371;42.686;23.362;2023-04-03T01:46:32;7.82;;;4.85;;
41687;SDS011;27371;42.686;23.362;2023-04-03T01:48:58;9.55;;;4.35;;
41687;SDS011;27371;42.686;23.362;2023-04-03T01:51:23;7.78;;;4.35;;
41687;SDS011;27371;42.686;23.362;2023-04-03T01:53:49;5.88;;;4.05;;
41687;SDS011;27371;42.686;23.362;2023-04-03T01:56:14;9.15;;;4.68;;
41687;SDS011;27371;42.686;23.362;2023-04-03T01:58:40;7.75;;;4.13;;
41687;SDS011;27371;42.686;23.362;2023-04-03T02:01:05;7.28;;;4.10;;
41687;SDS011;27371;42.686;23.362;2023-04-03T02:03:31;8.30;;;4.72;;
41687;SDS011;27371;42.686;23.362;2023-04-03T02:05:57;8.60;;;4.55;;
41687;SDS011;27371;42.686;23.362;2023-04-03T02:08:22;9.32;;;3.70;;
41687;SDS011;27371;42.686;23.362;2023-04-03T02:10:48;7.40;;;4.25;;
41687;SDS011;27371;42.686;23.362;2023-04-03T02:13:15;9.93;;;4.00;;
41687;SDS011;27371;42.686;23.362;2023-04-03T02:15:41;5.53;;;3.30;;
41687;SDS011;27371;42.686;23.362;2023-04-03T02:18:07;7.75;;;2.90;;
41687;SDS011;27371;42.686;23.362;2023-04-03T02:20:33;9.85;;;3.40;;
41687;SDS011;27371;42.686;23.362;2023-04-03T02:22:58;5.25;;;3.25;;
41687;SDS011;27371;42.686;23.362;2023-04-03T02:25:25;5.20;;;2.90;;
41687;SDS011;27371;42.686;23.362;2023-04-03T02:27:51;6.15;;;2.83;;
41687;SDS011;27371;42.686;23.362;2023-04-03T02:30:16;8.35;;;3.05;;
41687;SDS011;27371;42.686;23.362;2023-04-03T02:32:42;7.28;;;2.80;;
41687;SDS011;27371;42.686;23.362;2023-04-03T02:35:08;7.43;;;3.00;;
41687;SDS011;27371;42.686;23.362;2023-04-03T02:37:35;3.70;;;2.08;;
41687;SDS011;27371;42.686;23.362;2023-04-03T02:40:01;4.93;;;2.58;;
41687;SDS011;27371;42.686;23.362;2023-04-03T02:42:27;6.32;;;3.05;;
41687;SDS011;27371;42.686;23.362;2023-04-03T02:44:53;8.23;;;3.10;;
41687;SDS011;27371;42.686;23.362;2023-04-03T02:47:18;5.95;;;4.10;;
41687;SDS011;27371;42.686;23.362;2023-04-03T02:49:44;11.52;;;4.03;;
41687;SDS011;27371;42.686;23.362;2023-04-03T02:52:11;9.50;;;5.65;;
41687;SDS011;27371;42.686;23.362;2023-04-03T02:54:37;9.77;;;5.35;;
41687;SDS011;27371;42.686;23.362;2023-04-03T02:57:02;9.23;;;5.25;;
41687;SDS011;27371;42.686;23.362;2023-04-03T02:59:28;11.00;;;6.22;;
41687;SDS011;27371;42.686;23.362;2023-04-03T03:01:53;14.23;;;6.90;;
41687;SDS011;27371;42.686;23.362;2023-04-03T03:04:20;14.35;;;7.47;;
41687;SDS011;27371;42.686;23.362;2023-04-03T03:06:45;12.63;;;6.70;;
41687;SDS011;27371;42.686;23.362;2023-04-03T03:09:11;12.55;;;6.40;;
41687;SDS011;27371;42.686;23.362;2023-04-03T03:11:38;12.15;;;7.03;;
41687;SDS011;27371;42.686;23.362;2023-04-03T03:14:04;10.45;;;6.72;;
41687;SDS011;27371;42.686;23.362;2023-04-03T03:16:29;11.35;;;7.20;;
41687;SDS011;27371;42.686;23.362;2023-04-03T03:18:55;13.95;;;7.32;;
41687;SDS011;27371;42.686;23.362;2023-04-03T03:21:21;14.00;;;6.65;;
41687;SDS011;27371;42.686;23.362;2023-04-03T03:23:46;15.88;;;7.13;;
41687;SDS011;27371;42.686;23.362;2023-04-03T03:26:12;10.45;;;6.28;;
41687;SDS011;27371;42.686;23.362;2023-04-03T03:28:38;11.38;;;5.88;;
41687;SDS011;27371;42.686;23.362;2023-04-03T03:31:04;12.20;;;6.32;;
41687;SDS011;27371;42.686;23.362;2023-04-03T03:33:31;16.65;;;6.80;;
41687;SDS011;27371;42.686;23.362;2023-04-03T03:35:57;11.40;;;6.55;;
41687;SDS011;27371;42.686;23.362;2023-04-03T03:38:23;25.23;;;10.85;;
41687;SDS011;27371;42.686;23.362;2023-04-03T03:40:49;35.92;;;19.77;;
41687;SDS011;27371;42.686;23.362;2023-04-03T03:43:16;25.67;;;16.48;;
41687;SDS011;27371;42.686;23.362;2023-04-03T03:45:41;28.13;;;15.23;;
41687;SDS011;27371;42.686;23.362;2023-04-03T03:48:07;20.05;;;10.27;;
41687;SDS011;27371;42.686;23.362;2023-04-03T03:50:33;24.65;;;11.80;;
41687;SDS011;27371;42.686;23.362;2023-04-03T03:52:59;24.23;;;12.70;;
41687;SDS011;27371;42.686;23.362;2023-04-03T03:55:24;17.48;;;9.85;;
41687;SDS011;27371;42.686;23.362;2023-04-03T03:57:50;14.52;;;8.30;;
41687;SDS011;27371;42.686;23.362;2023-04-03T04:00:16;17.58;;;9.77;;
41687;SDS011;27371;42.686;23.362;2023-04-03T04:02:41;13.55;;;7.75;;
41687;SDS011;27371;42.686;23.362;2023-04-03T04:05:07;17.75;;;8.27;;
41687;SDS011;27371;42.686;23.362;2023-04-03T04:07:33;18.63;;;8.55;;
41687;SDS011;27371;42.686;23.362;2023-04-03T04:09:58;22.20;;;9.90;;
41687;SDS011;27371;42.686;23.362;2023-04-03T04:12:24;15.60;;;8.93;;
41687;SDS011;27371;42.686;23.362;2023-04-03T04:14:49;12.55;;;7.18;;
41687;SDS011;27371;42.686;23.362;2023-04-03T04:17:15;15.18;;;8.63;;
41687;SDS011;27371;42.686;23.362;2023-04-03T04:19:42;13.55;;;7.60;;
41687;SDS011;27371;42.686;23.362;2023-04-03T04:22:07;12.50;;;7.25;;
41687;SDS011;27371;42.686;23.362;2023-04-03T04:24:32;18.10;;;8.85;;
41687;SDS011;27371;42.686;23.362;2023-04-03T04:26:58;14.52;;;8.23;;
41687;SDS011;27371;42.686;23.362;2023-04-03T04:29:24;14.45;;;9.10;;
41687;SDS011;27371;42.686;23.362;2023-04-03T04:31:49;18.55;;;9.10;;
41687;SDS011;27371;42.686;23.362;2023-04-03T04:34:15;13.13;;;7.55;;
41687;SDS011;27371;42.686;23.362;2023-04-03T04:36:40;14.55;;;7.13;;
41687;SDS011;27371;42.686;23.362;2023-04-03T04:39:06;12.27;;;7.72;;
41687;SDS011;27371;42.686;23.362;2023-04-03T04:41:32;17.05;;;9.18;;
41687;SDS011;27371;42.686;23.362;2023-04-03T04:43:57;17.73;;;9.25;;
41687;SDS011;27371;42.686;23.362;2023-04-03T04:46:23;13.25;;;7.07;;
41687;SDS011;27371;42.686;23.362;2023-04-03T04:48:49;14.30;;;8.65;;
41687;SDS011;27371;42.686;23.362;2023-04-03T04:51:14;17.13;;;10.85;;
41687;SDS011;27371;42.686;23.362;2023-04-03T04:53:40;18.80;;;9.73;;
41687;SDS011;27371;42.686;23.362;2023-04-03T04:56:06;17.27;;;9.02;;
41687;SDS011;27371;42.686;23.362;2023-04-03T04:58:32;16.02;;;9.38;;
41687;SDS011;27371;42.686;23.362;2023-04-03T05:01:04;16.45;;;10.80;;
41687;SDS011;27371;42.686;23.362;2023-04-03T05:03:31;18.40;;;8.85;;
41687;SDS011;27371;42.686;23.362;2023-04-03T05:05:57;17.50;;;10.43;;
41687;SDS011;27371;42.686;23.362;2023-04-03T05:08:23;21.38;;;11.32;;
41687;SDS011;27371;42.686;23.362;2023-04-03T05:10:48;30.00;;;11.95;;
41687;SDS011;27371;42.686;23.362;2023-04-03T05:13:14;26.55;;;10.75;;
41687;SDS011;27371;42.686;23.362;2023-04-03T05:15:41;20.67;;;8.65;;
41687;SDS011;27371;42.686;23.362;2023-04-03T05:18:06;17.17;;;9.40;;
41687;SDS011;27371;42.686;23.362;2023-04-03T05:20:32;25.55;;;9.55;;
41687;SDS011;27371;42.686;23.362;2023-04-03T05:22:58;22.92;;;9.35;;
41687;SDS011;27371;42.686;23.362;2023-04-03T05:25:24;25.23;;;11.07;;
41687;SDS011;27371;42.686;23.362;2023-04-03T05:27:49;23.83;;;10.90;;
41687;SDS011;27371;42.686;23.362;2023-04-03T05:30:16;24.67;;;10.82;;
41687;SDS011;27371;42.686;23.362;2023-04-03T05:32:42;17.85;;;10.02;;
41687;SDS011;27371;42.686;23.362;2023-04-03T05:35:07;21.75;;;9.65;;
41687;SDS011;27371;42.686;23.362;2023-04-03T05:37:33;21.02;;;9.10;;
41687;SDS011;27371;42.686;23.362;2023-04-03T05:39:59;18.27;;;10.95;;
41687;SDS011;27371;42.686;23.362;2023-04-03T05:42:25;23.52;;;10.25;;
41687;SDS011;27371;42.686;23.362;2023-04-03T05:44:50;37.60;;;11.27;;
41687;SDS011;27371;42.686;23.362;2023-04-03T05:47:16;25.17;;;9.75;;
41687;SDS011;27371;42.686;23.362;2023-04-03T05:49:42;23.27;;;10.35;;
41687;SDS011;27371;42.686;23.362;2023-04-03T05:52:13;33.88;;;10.60;;
41687;SDS011;27371;42.686;23.362;2023-04-03T05:54:46;18.30;;;10.40;;
41687;SDS011;27371;42.686;23.362;2023-04-03T05:57:13;24.85;;;10.38;;
41687;SDS011;27371;42.686;23.362;2023-04-03T05:59:41;24.10;;;11.30;;
41687;SDS011;27371;42.686;23.362;2023-04-03T06:02:08;26.58;;;12.70;;
41687;SDS011;27371;42.686;23.362;2023-04-03T06:04:36;22.80;;;10.10;;
41687;SDS011;27371;42.686;23.362;2023-04-03T06:07:01;14.63;;;7.85;;
41687;SDS011;27371;42.686;23.362;2023-04-03T06:09:27;24.98;;;9.23;;
41687;SDS011;27371;42.686;23.362;2023-04-03T06:11:56;29.40;;;11.55;;
41687;SDS011;27371;42.686;23.362;2023-04-03T06:14:24;27.45;;;12.10;;
41687;SDS011;27371;42.686;23.362;2023-04-03T06:16:50;27.70;;;10.68;;
41687;SDS011;27371;42.686;23.362;2023-04-03T06:19:16;23.42;;;9.55;;
41687;SDS011;27371;42.686;23.362;2023-04-03T06:21:42;24.42;;;11.18;;
41687;SDS011;27371;42.686;23.362;2023-04-03T06:24:07;21.58;;;10.27;;
41687;SDS011;27371;42.686;23.362;2023-04-03T06:26:34;22.75;;;10.02;;
41687;SDS011;27371;42.686;23.362;2023-04-03T06:29:00;25.40;;;9.77;;
41687;SDS011;27371;42.686;23.362;2023-04-03T06:31:25;17.83;;;9.27;;
41687;SDS011;27371;42.686;23.362;2023-04-03T06:33:51;15.02;;;9.77;;
41687;SDS011;27371;42.686;23.362;2023-04-03T06:36:18;16.45;;;9.18;;
41687;SDS011;27371;42.686;23.362;2023-04-03T06:38:47;18.10;;;9.35;;
41687;SDS011;27371;42.686;23.362;2023-04-03T06:41:12;21.77;;;12.07;;
41687;SDS011;27371;42.686;23.362;2023-04-03T06:43:38;21.27;;;11.43;;
41687;SDS011;27371;42.686;23.362;2023-04-03T06:46:03;25.48;;;11.85;;
41687;SDS011;27371;42.686;23.362;2023-04-03T06:48:30;26.13;;;10.63;;
41687;SDS011;27371;42.686;23.362;2023-04-03T06:50:55;21.70;;;11.05;;
41687;SDS011;27371;42.686;23.362;2023-04-03T06:53:21;16.75;;;9.35;;
41687;SDS011;27371;42.686;23.362;2023-04-03T06:55:46;15.88;;;9.40;;
41687;SDS011;27371;42.686;23.362;2023-04-03T06:58:12;21.08;;;9.85;;
41687;SDS011;27371;42.686;23.362;2023-04-03T07:00:38;24.17;;;10.23;;
41687;SDS011;27371;42.686;23.362;2023-04-03T07:03:04;18.40;;;9.02;;
41687;SDS011;27371;42.686;23.362;2023-04-03T07:05:30;17.45;;;10.50;;
41687;SDS011;27371;42.686;23.362;2023-04-03T07:07:56;29.23;;;10.38;;
41687;SDS011;27371;42.686;23.362;2023-04-03T07:10:21;26.30;;;10.95;;
41687;SDS011;27371;42.686;23.362;2023-04-03T07:12:48;24.00;;;9.95;;
41687;SDS011;27371;42.686;23.362;2023-04-03T07:15:13;27.77;;;10.88;;
41687;SDS011;27371;42.686;23.362;2023-04-03T07:17:39;22.27;;;10.07;;
41687;SDS011;27371;42.686;23.362;2023-04-03T07:20:05;19.85;;;10.38;;
41687;SDS011;27371;42.686;23.362;2023-04-03T07:22:32;21.92;;;10.48;;
41687;SDS011;27371;42.686;23.362;2023-04-03T07:24:57;18.25;;;9.40;;
41687;SDS011;27371;42.686;23.362;2023-04-03T07:27:24;18.15;;;9.02;;
41687;SDS011;27371;42.686;23.362;2023-04-03T07:29:50;19.40;;;8.45;;
41687;SDS011;27371;42.686;23.362;2023-04-03T07:32:16;18.73;;;9.30;;
41687;SDS011;27371;42.686;23.362;2023-04-03T07:34:42;18.55;;;9.60;;
41687;SDS011;27371;42.686;23.362;2023-04-03T07:37:08;20.52;;;10.40;;
41687;SDS011;27371;42.686;23.362;2023-04-03T07:39:34;18.90;;;10.60;;
41687;SDS011;27371;42.686;23.362;2023-04-03T07:42:00;31.10;;;12.10;;
41687;SDS011;27371;42.686;23.362;2023-04-03T07:44:27;20.75;;;10.95;;
41687;SDS011;27371;42.686;23.362;2023-04-03T07:46:54;26.80;;;12.38;;
41687;SDS011;27371;42.686;23.362;2023-04-03T07:49:21;24.98;;;12.88;;
41687;SDS011;27371;42.686;23.362;2023-04-03T07:51:49;25.90;;;13.05;;
41687;SDS011;27371;42.686;23.362;2023-04-03T07:54:14;28.70;;;13.02;;
41687;SDS011;27371;42.686;23.362;2023-04-03T07:56:40;27.15;;;11.90;;
41687;SDS011;27371;42.686;23.362;2023-04-03T07:59:07;25.92;;;11.57;;
41687;SDS011;27371;42.686;23.362;2023-04-03T08:01:34;31.00;;;12.35;;
41687;SDS011;27371;42.686;23.362;2023-04-03T08:04:00;24.77;;;12.20;;
41687;SDS011;27371;42.686;23.362;2023-04-03T08:06:26;28.13;;;10.88;;
41687;SDS011;27371;42.686;23.362;2023-04-03T08:08:52;23.45;;;11.95;;
41687;SDS011;27371;42.686;23.362;2023-04-03T08:11:17;22.60;;;11.70;;
41687;SDS011;27371;42.686;23.362;2023-04-03T08:13:44;18.48;;;11.32;;
41687;SDS011;27371;42.686;23.362;2023-04-03T08:16:15;25.67;;;12.25;;
41687;SDS011;27371;42.686;23.362;2023-04-03T08:18:43;23.30;;;11.23;;
41687;SDS011;27371;42.686;23.362;2023-04-03T08:21:09;23.23;;;12.00;;
41687;SDS011;27371;42.686;23.362;2023-04-03T08:23:37;22.85;;;11.82;;
41687;SDS011;27371;42.686;23.362;2023-04-03T08:26:13;25.65;;;11.70;;
41687;SDS011;27371;42.686;23.362;2023-04-03T08:28:40;22.60;;;11.07;;
41687;SDS011;27371;42.686;23.362;2023-04-03T08:31:07;21.00;;;12.25;;
41687;SDS011;27371;42.686;23.362;2023-04-03T08:33:35;22.95;;;11.07;;
41687;SDS011;27371;42.686;23.362;2023-04-03T08:36:03;25.95;;;11.60;;
41687;SDS011;27371;42.686;23.362;2023-04-03T08:38:30;25.80;;;11.68;;
41687;SDS011;27371;42.686;23.362;2023-04-03T08:41:04;18.98;;;10.95;;
41687;SDS011;27371;42.686;23.362;2023-04-03T08:43:48;18.15;;;10.77;;
41687;SDS011;27371;42.686;23.362;2023-04-03T08:46:22;23.30;;;10.40;;
41687;SDS011;27371;42.686;23.362;2023-04-03T08:48:57;20.33;;;10.43;;
41687;SDS011;27371;42.686;23.362;2023-04-03T08:51:24;23.73;;;11.50;;
41687;SDS011;27371;42.686;23.362;2023-04-03T08:54:06;23.27;;;11.32;;
41687;SDS011;27371;42.686;23.362;2023-04-03T08:56:46;23.53;;;11.47;;
41687;SDS011;27371;42.686;23.362;2023-04-03T08:59:14;20.88;;;10.50;;
41687;SDS011;27371;42.686;23.362;2023-04-03T09:01:48;17.15;;;10.48;;
41687;SDS011;27371;42.686;23.362;2023-04-03T09:04:14;24.45;;;10.90;;
41687;SDS011;27371;42.686;23.362;2023-04-03T09:06:45;26.65;;;10.75;;
41687;SDS011;27371;42.686;23.362;2023-04-03T09:09:33;20.17;;;10.30;;
41687;SDS011;27371;42.686;23.362;2023-04-03T09:20:00;17.48;;;8.93;;
41687;SDS011;27371;42.686;23.362;2023-04-03T09:22:27;17.95;;;9.30;;
41687;SDS011;27371;42.686;23.362;2023-04-03T09:25:16;20.33;;;8.73;;
41687;SDS011;27371;42.686;23.362;2023-04-03T09:27:46;19.77;;;8.73;;
41687;SDS011;27371;42.686;23.362;2023-04-03T09:30:16;24.42;;;9.30;;
41687;SDS011;27371;42.686;23.362;2023-04-03T09:32:47;20.30;;;10.00;;
41687;SDS011;27371;42.686;23.362;2023-04-03T09:35:16;21.77;;;9.55;;
41687;SDS011;27371;42.686;23.362;2023-04-03T09:37:50;18.42;;;9.57;;
41687;SDS011;27371;42.686;23.362;2023-04-03T09:42:52;26.10;;;11.70;;
41687;SDS011;27371;42.686;23.362;2023-04-03T09:45:36;26.08;;;11.07;;
41687;SDS011;27371;42.686;23.362;2023-04-03T09:56:03;18.33;;;9.77;;
41687;SDS011;27371;42.686;23.362;2023-04-03T10:04:30;13.52;;;7.90;;
41687;SDS011;27371;42.686;23.362;2023-04-03T10:06:48;22.67;;;9.45;;
41687;SDS011;27371;42.686;23.362;2023-04-03T10:09:22;19.90;;;8.60;;
41687;SDS011;27371;42.686;23.362;2023-04-03T10:14:40;24.10;;;8.63;;
41687;SDS011;27371;42.686;23.362;2023-04-03T10:26:01;20.10;;;7.90;;
41687;SDS011;27371;42.686;23.362;2023-04-03T10:31:28;13.77;;;7.13;;
41687;SDS011;27371;42.686;23.362;2023-04-03T10:34:05;18.27;;;7.17;;
41687;SDS011;27371;42.686;23.362;2023-04-03T10:58:44;15.88;;;5.90;;
41687;SDS011;27371;42.686;23.362;2023-04-03T11:01:16;9.48;;;4.80;;
41687;SDS011;27371;42.686;23.362;2023-04-03T11:03:51;18.67;;;4.03;;
41687;SDS011;27371;42.686;23.362;2023-04-03T11:06:21;12.52;;;4.13;;
41687;SDS011;27371;42.686;23.362;2023-04-03T11:11:35;9.40;;;2.90;;
41687;SDS011;27371;42.686;23.362;2023-04-03T11:16:45;10.75;;;2.53;;
41687;SDS011;27371;42.686;23.362;2023-04-03T11:19:25;4.07;;;2.30;;
41687;SDS011;27371;42.686;23.362;2023-04-03T11:22:01;4.22;;;1.88;;
41687;SDS011;27371;42.686;23.362;2023-04-03T11:24:33;6.38;;;2.10;;
41687;SDS011;27371;42.686;23.362;2023-04-03T11:27:05;5.00;;;2.58;;
41687;SDS011;27371;42.686;23.362;2023-04-03T11:29:35;10.10;;;2.47;;
41687;SDS011;27371;42.686;23.362;2023-04-03T11:32:18;3.95;;;2.20;;
41687;SDS011;27371;42.686;23.362;2023-04-03T11:35:10;3.47;;;2.20;;
41687;SDS011;27371;42.686;23.362;2023-04-03T11:40:24;7.03;;;2.03;;
41687;SDS011;27371;42.686;23.362;2023-04-03T11:45:25;9.00;;;2.47;;
41687;SDS011;27371;42.686;23.362;2023-04-03T11:47:56;3.55;;;2.50;;
41687;SDS011;27371;42.686;23.362;2023-04-03T12:13:34;4.07;;;1.90;;
41687;SDS011;27371;42.686;23.362;2023-04-03T12:16:05;4.30;;;2.10;;
41687;SDS011;27371;42.686;23.362;2023-04-03T12:22:05;4.28;;;2.50;;
41687;SDS011;27371;42.686;23.362;2023-04-03T12:35:14;4.05;;;2.60;;
41687;SDS011;27371;42.686;23.362;2023-04-03T12:51:15;4.03;;;2.38;;
41687;SDS011;27371;42.686;23.362;2023-04-03T12:53:45;3.85;;;2.63;;
41687;SDS011;27371;42.686;23.362;2023-04-03T12:56:30;3.97;;;3.10;;
41687;SDS011;27371;42.686;23.362;2023-04-03T12:59:20;5.63;;;2.97;;
41687;SDS011;27371;42.686;23.362;2023-04-03T13:01:57;5.60;;;3.22;;
41687;SDS011;27371;42.686;23.362;2023-04-03T13:04:24;5.65;;;3.92;;
41687;SDS011;27371;42.686;23.362;2023-04-03T13:06:51;6.18;;;3.75;;
41687;SDS011;27371;42.686;23.362;2023-04-03T13:09:21;5.82;;;3.28;;
41687;SDS011;27371;42.686;23.362;2023-04-03T13:14:36;6.60;;;3.65;;
41687;SDS011;27371;42.686;23.362;2023-04-03T13:17:15;10.68;;;4.32;;
41687;SDS011;27371;42.686;23.362;2023-04-03T13:19:43;10.27;;;5.68;;
41687;SDS011;27371;42.686;23.362;2023-04-03T13:22:26;8.23;;;5.57;;
41687;SDS011;27371;42.686;23.362;2023-04-03T13:25:09;6.32;;;4.85;;
41687;SDS011;27371;42.686;23.362;2023-04-03T13:27:38;9.07;;;5.25;;
41687;SDS011;27371;42.686;23.362;2023-04-03T13:30:17;9.20;;;5.13;;
41687;SDS011;27371;42.686;23.362;2023-04-03T13:32:46;6.55;;;4.80;;
41687;SDS011;27371;42.686;23.362;2023-04-03T13:35:26;7.15;;;4.82;;
41687;SDS011;27371;42.686;23.362;2023-04-03T13:37:59;6.95;;;5.22;;
41687;SDS011;27371;42.686;23.362;2023-04-03T13:40:26;5.77;;;4.37;;
41687;SDS011;27371;42.686;23.362;2023-04-03T13:43:01;6.88;;;4.72;;
41687;SDS011;27371;42.686;23.362;2023-04-03T13:45:33;6.10;;;4.28;;
41687;SDS011;27371;42.686;23.362;2023-04-03T13:48:10;5.72;;;4.45;;
41687;SDS011;27371;42.686;23.362;2023-04-03T13:53:22;8.85;;;5.30;;
41687;SDS011;27371;42.686;23.362;2023-04-03T13:55:55;7.07;;;5.30;;
41687;SDS011;27371;42.686;23.362;2023-04-03T13:58:36;9.18;;;6.10;;
41687;SDS011;27371;42.686;23.362;2023-04-03T14:01:17;8.75;;;6.00;;
41687;SDS011;27371;42.686;23.362;2023-04-03T14:03:46;9.00;;;5.65;;
41687;SDS011;27371;42.686;23.362;2023-04-03T14:06:22;6.95;;;5.65;;
41687;SDS011;27371;42.686;23.362;2023-04-03T14:08:48;7.47;;;5.18;;
41687;SDS011;27371;42.686;23.362;2023-04-03T14:11:15;10.25;;;5.50;;
41687;SDS011;27371;42.686;23.362;2023-04-03T14:13:49;6.32;;;4.88;;
41687;SDS011;27371;42.686;23.362;2023-04-03T14:16:18;6.03;;;4.55;;
41687;SDS011;27371;42.686;23.362;2023-04-03T14:18:45;7.30;;;4.40;;
41687;SDS011;27371;42.686;23.362;2023-04-03T14:21:29;7.00;;;5.30;;
41687;SDS011;27371;42.686;23.362;2023-04-03T14:23:55;6.72;;;5.53;;
41687;SDS011;27371;42.686;23.362;2023-04-03T14:26:22;6.38;;;5.38;;
41687;SDS011;27371;42.686;23.362;2023-04-03T14:28:50;9.98;;;5.03;;
41687;SDS011;27371;42.686;23.362;2023-04-03T14:31:17;9.73;;;5.50;;
41687;SDS011;27371;42.686;23.362;2023-04-03T14:33:43;8.05;;;5.22;;
41687;SDS011;27371;42.686;23.362;2023-04-03T14:36:11;7.32;;;5.30;;
41687;SDS011;27371;42.686;23.362;2023-04-03T14:38:38;7.68;;;5.10;;
41687;SDS011;27371;42.686;23.362;2023-04-03T14:41:06;7.35;;;5.28;;
41687;SDS011;27371;42.686;23.362;2023-04-03T14:43:32;6.60;;;4.72;;
41687;SDS011;27371;42.686;23.362;2023-04-03T14:45:57;9.98;;;5.88;;
41687;SDS011;27371;42.686;23.362;2023-04-03T14:48:24;5.50;;;4.40;;
41687;SDS011;27371;42.686;23.362;2023-04-03T14:50:52;6.35;;;4.30;;
41687;SDS011;27371;42.686;23.362;2023-04-03T14:53:18;5.90;;;4.15;;
41687;SDS011;27371;42.686;23.362;2023-04-03T14:55:47;7.05;;;4.13;;
41687;SDS011;27371;42.686;23.362;2023-04-03T14:58:15;6.63;;;3.92;;
41687;SDS011;27371;42.686;23.362;2023-04-03T15:00:42;6.43;;;3.97;;
41687;SDS011;27371;42.686;23.362;2023-04-03T15:03:18;3.72;;;3.00;;
41687;SDS011;27371;42.686;23.362;2023-04-03T15:05:46;4.43;;;2.92;;
41687;SDS011;27371;42.686;23.362;2023-04-03T15:08:21;2.67;;;2.15;;
41687;SDS011;27371;42.686;23.362;2023-04-03T15:10:49;4.13;;;2.45;;
41687;SDS011;27371;42.686;23.362;2023-04-03T15:13:17;4.25;;;2.30;;
41687;SDS011;27371;42.686;23.362;2023-04-03T15:15:43;4.53;;;2.40;;
41687;SDS011;27371;42.686;23.362;2023-04-03T15:18:17;3.38;;;2.22;;
41687;SDS011;27371;42.686;23.362;2023-04-03T15:20:45;5.75;;;2.53;;
41687;SDS011;27371;42.686;23.362;2023-04-03T15:23:12;3.90;;;2.45;;
41687;SDS011;27371;42.686;23.362;2023-04-03T15:25:40;3.95;;;2.40;;
41687;SDS011;27371;42.686;23.362;2023-04-03T15:28:37;4.20;;;2.60;;
41687;SDS011;27371;42.686;23.362;2023-04-03T15:31:05;4.57;;;2.70;;
41687;SDS011;27371;42.686;23.362;2023-04-03T15:33:32;5.95;;;2.70;;
41687;SDS011;27371;42.686;23.362;2023-04-03T15:35:59;3.70;;;2.92;;
41687;SDS011;27371;42.686;23.362;2023-04-03T15:38:26;9.15;;;3.22;;
41687;SDS011;27371;42.686;23.362;2023-04-03T15:40:51;5.15;;;3.20;;
41687;SDS011;27371;42.686;23.362;2023-04-03T15:43:17;4.00;;;3.20;;
41687;SDS011;27371;42.686;23.362;2023-04-03T15:45:42;5.00;;;4.38;;
41687;SDS011;27371;42.686;23.362;2023-04-03T15:48:10;5.18;;;3.95;;
41687;SDS011;27371;42.686;23.362;2023-04-03T15:50:36;7.22;;;5.30;;
41687;SDS011;27371;42.686;23.362;2023-04-03T15:53:02;7.57;;;6.05;;
41687;SDS011;27371;42.686;23.362;2023-04-03T15:55:29;5.95;;;5.25;;
41687;SDS011;27371;42.686;23.362;2023-04-03T15:57:56;6.65;;;5.57;;
41687;SDS011;27371;42.686;23.362;2023-04-03T16:00:22;8.75;;;7.35;;
41687;SDS011;27371;42.686;23.362;2023-04-03T16:02:49;12.38;;;8.73;;
41687;SDS011;27371;42.686;23.362;2023-04-03T16:05:17;12.02;;;10.25;;
41687;SDS011;27371;42.686;23.362;2023-04-03T16:07:45;11.73;;;8.68;;
41687;SDS011;27371;42.686;23.362;2023-04-03T16:10:13;8.38;;;5.90;;
41687;SDS011;27371;42.686;23.362;2023-04-03T16:12:40;7.70;;;4.90;;
41687;SDS011;27371;42.686;23.362;2023-04-03T16:15:06;6.90;;;5.32;;
41687;SDS011;27371;42.686;23.362;2023-04-03T16:17:32;8.40;;;5.82;;
41687;SDS011;27371;42.686;23.362;2023-04-03T16:19:59;12.60;;;9.55;;
41687;SDS011;27371;42.686;23.362;2023-04-03T16:22:26;15.02;;;12.88;;
41687;SDS011;27371;42.686;23.362;2023-04-03T16:24:53;13.98;;;11.43;;
41687;SDS011;27371;42.686;23.362;2023-04-03T16:27:19;11.45;;;9.88;;
41687;SDS011;27371;42.686;23.362;2023-04-03T16:29:45;13.23;;;11.82;;
41687;SDS011;27371;42.686;23.362;2023-04-03T16:32:11;12.30;;;9.05;;
41687;SDS011;27371;42.686;23.362;2023-04-03T16:34:37;11.93;;;9.40;;
41687;SDS011;27371;42.686;23.362;2023-04-03T16:37:05;10.55;;;8.18;;
41687;SDS011;27371;42.686;23.362;2023-04-03T16:39:31;11.25;;;7.68;;
41687;SDS011;27371;42.686;23.362;2023-04-03T16:41:56;9.05;;;7.25;;
41687;SDS011;27371;42.686;23.362;2023-04-03T16:44:22;11.15;;;8.18;;